Time;durP1;ratioP1;P1;durP2;ratioP2;P2;SDS_P1;SDS_P2;PMS_P1;PMS_P2;Temp;Humidity;BMP_temperature;BMP_pressure;BME280_temperature;BME280_humidity;BME280_pressure;Samples;Min_cycle;Max_cycle;Signal;HPM_P1;HPM_P2
2022/07/07 00:01:53;;;;;;;;;;;25.10;64.60;;;;;;5011451;28;19964;-71
2022/07/07 00:04:19;;;;;;;;;;;25.10;64.80;;;;;;5011010;28;20104;-71
2022/07/07 00:06:44;;;;;;;;;;;25.00;65.00;;;;;;5012081;28;19914;-71
2022/07/07 00:09:10;;;;;;;;;;;25.10;65.30;;;;;;5012175;28;19909;-71
2022/07/07 00:11:36;;;;;;;;;;;25.00;65.20;;;;;;5012223;28;19960;-71
2022/07/07 00:14:02;;;;;;;;;;;24.90;65.50;;;;;;5012900;28;19917;-71
2022/07/07 00:16:27;;;;;;;;;;;24.70;65.60;;;;;;5010900;28;19921;-71
2022/07/07 00:18:53;;;;;;;;;;;24.80;65.90;;;;;;5012808;28;19910;-71
2022/07/07 00:21:19;;;;;;;;;;;24.70;65.80;;;;;;5011823;28;20447;-70
2022/07/07 00:23:45;;;;;;;;;;;24.70;66.00;;;;;;5012398;28;19937;-71
2022/07/07 00:26:10;;;;;;;;;;;24.60;66.10;;;;;;5012499;28;19909;-71
2022/07/07 00:28:36;;;;;;;;;;;24.70;66.20;;;;;;5011464;28;19909;-71
2022/07/07 00:31:01;;;;;;;;;;;24.60;66.30;;;;;;5011904;28;20007;-71
2022/07/07 00:33:27;;;;;;;;;;;24.60;66.30;;;;;;5012364;28;19910;-71
2022/07/07 00:35:53;;;;;;;;;;;24.40;66.50;;;;;;5011094;28;19924;-71
2022/07/07 00:38:18;;;;;;;;;;;24.50;66.60;;;;;;5010363;28;20325;-71
2022/07/07 00:40:48;;;;;;;;;;;24.50;66.70;;;;;;5011175;28;19968;-71
2022/07/07 00:43:14;;;;;;;;;;;24.50;66.80;;;;;;5011954;28;20344;-72
2022/07/07 00:45:39;;;;;;;;;;;24.50;66.70;;;;;;5012524;28;19910;-71
2022/07/07 00:48:06;;;;;;;;;;;24.40;66.80;;;;;;5011748;28;19971;-71
2022/07/07 00:50:32;;;;;;;;;;;24.50;66.80;;;;;;5011567;28;19909;-71
2022/07/07 00:52:57;;;;;;;;;;;24.40;66.70;;;;;;5012077;28;19921;-71
2022/07/07 00:55:23;;;;;;;;;;;24.30;66.90;;;;;;5012024;28;20386;-71
2022/07/07 00:57:49;;;;;;;;;;;24.40;66.90;;;;;;5012073;28;19963;-71
2022/07/07 01:00:15;;;;;;;;;;;24.40;66.90;;;;;;5011086;28;20008;-71
2022/07/07 01:02:44;;;;;;;;;;;24.30;67.10;;;;;;5011835;28;19918;-71
2022/07/07 01:05:10;;;;;;;;;;;24.30;67.10;;;;;;5011119;28;20274;-71
2022/07/07 01:07:36;;;;;;;;;;;24.30;67.00;;;;;;5011818;28;19910;-71
2022/07/07 01:10:03;;;;;;;;;;;24.20;66.90;;;;;;5012474;28;20340;-71
2022/07/07 01:12:36;;;;;;;;;;;24.20;66.80;;;;;;5013920;28;19913;-71
2022/07/07 01:15:03;;;;;;;;;;;24.20;67.10;;;;;;5015580;28;20371;-71
2022/07/07 01:17:28;;;;;;;;;;;24.20;66.70;;;;;;5015360;28;20362;-71
2022/07/07 01:19:54;;;;;;;;;;;24.10;66.50;;;;;;5015684;28;19917;-71
2022/07/07 01:22:21;;;;;;;;;;;24.10;66.30;;;;;;5015373;28;19918;-71
2022/07/07 01:24:47;;;;;;;;;;;24.20;66.10;;;;;;5015286;28;19913;-71
2022/07/07 01:27:16;;;;;;;;;;;24.20;65.60;;;;;;5014223;28;20397;-71
2022/07/07 01:29:43;;;;;;;;;;;24.20;65.40;;;;;;5015529;28;19909;-72
2022/07/07 01:32:09;;;;;;;;;;;24.20;65.50;;;;;;5015359;28;19929;-71
2022/07/07 01:34:35;;;;;;;;;;;24.10;65.10;;;;;;5014480;28;20008;-71
2022/07/07 01:37:01;;;;;;;;;;;24.20;65.00;;;;;;5015562;28;19910;-71
2022/07/07 01:39:27;;;;;;;;;;;24.10;65.10;;;;;;5015039;28;19924;-71
2022/07/07 01:41:52;;;;;;;;;;;24.20;65.00;;;;;;5014821;28;20442;-71
2022/07/07 01:44:18;;;;;;;;;;;24.10;64.70;;;;;;5014993;28;19956;-71
2022/07/07 01:46:43;;;;;;;;;;;24.10;64.80;;;;;;5014431;28;19972;-71
2022/07/07 01:49:09;;;;;;;;;;;24.10;64.70;;;;;;5014521;28;19909;-71
2022/07/07 01:51:35;;;;;;;;;;;24.10;64.60;;;;;;5014841;28;20004;-71
2022/07/07 01:54:01;;;;;;;;;;;24.00;64.70;;;;;;5015130;28;20381;-71
2022/07/07 01:56:26;;;;;;;;;;;24.00;64.60;;;;;;5015162;28;19949;-72
2022/07/07 01:58:52;;;;;;;;;;;23.90;64.50;;;;;;5013235;28;19909;-71
2022/07/07 02:01:18;;;;;;;;;;;23.90;64.60;;;;;;5014439;28;20360;-71
2022/07/07 02:03:43;;;;;;;;;;;23.90;64.60;;;;;;5014340;28;19973;-71
2022/07/07 02:06:09;;;;;;;;;;;23.80;64.40;;;;;;5014720;28;19932;-71
2022/07/07 02:08:35;;;;;;;;;;;23.90;64.00;;;;;;5014501;28;19910;-71
2022/07/07 02:11:12;;;;;;;;;;;23.80;63.90;;;;;;5015068;28;19917;-71
2022/07/07 02:13:42;;;;;;;;;;;23.80;63.60;;;;;;5014828;28;19963;-71
2022/07/07 02:16:07;;;;;;;;;;;23.90;63.80;;;;;;5014222;28;19937;-71
2022/07/07 02:18:34;;;;;;;;;;;23.80;63.70;;;;;;5014095;28;20382;-71
2022/07/07 02:21:00;;;;;;;;;;;23.80;63.70;;;;;;5013995;28;20059;-71
2022/07/07 02:23:25;;;;;;;;;;;23.80;63.80;;;;;;5014037;28;19997;-71
2022/07/07 02:25:51;;;;;;;;;;;23.80;63.60;;;;;;5014285;28;19910;-71
2022/07/07 02:28:17;;;;;;;;;;;23.80;63.70;;;;;;5014171;28;19910;-71
2022/07/07 02:30:42;;;;;;;;;;;23.70;63.80;;;;;;5014282;28;19916;-71
2022/07/07 02:33:09;;;;;;;;;;;23.60;64.20;;;;;;5014451;28;20008;-71
2022/07/07 02:35:34;;;;;;;;;;;23.60;64.50;;;;;;5014203;28;19935;-71
2022/07/07 02:38:00;;;;;;;;;;;23.50;64.70;;;;;;5013918;28;20291;-71
2022/07/07 02:40:25;;;;;;;;;;;23.50;64.40;;;;;;5014049;28;19926;-71
2022/07/07 02:42:51;;;;;;;;;;;23.50;64.50;;;;;;5013799;28;20374;-71
2022/07/07 02:45:17;;;;;;;;;;;23.50;64.60;;;;;;5013659;28;19914;-71
2022/07/07 02:47:42;;;;;;;;;;;23.50;64.40;;;;;;5013304;28;19952;-71
2022/07/07 02:50:09;;;;;;;;;;;23.50;64.70;;;;;;5014137;28;19910;-71
2022/07/07 02:52:34;;;;;;;;;;;23.40;65.00;;;;;;5013601;28;19910;-71
2022/07/07 02:55:00;;;;;;;;;;;23.40;65.20;;;;;;5013420;28;19955;-71
2022/07/07 02:57:25;;;;;;;;;;;23.40;65.40;;;;;;5013501;28;20362;-71
2022/07/07 02:59:51;;;;;;;;;;;23.40;65.60;;;;;;5012832;28;19995;-71
2022/07/07 03:02:17;;;;;;;;;;;23.30;66.00;;;;;;5012846;28;19925;-71
2022/07/07 03:04:42;;;;;;;;;;;23.30;65.80;;;;;;5013181;28;19909;-71
2022/07/07 03:07:08;;;;;;;;;;;23.30;65.90;;;;;;5012604;28;19917;-71
2022/07/07 03:09:34;;;;;;;;;;;23.40;66.20;;;;;;5012954;28;20397;-71
2022/07/07 03:11:59;;;;;;;;;;;23.30;66.60;;;;;;5013830;28;20456;-71
2022/07/07 03:14:25;;;;;;;;;;;23.20;66.90;;;;;;5012993;28;19996;-71
2022/07/07 03:16:50;;;;;;;;;;;23.10;67.30;;;;;;5013027;28;19913;-71
2022/07/07 03:19:16;;;;;;;;;;;23.10;67.60;;;;;;5013519;28;19909;-71
2022/07/07 03:21:41;;;;;;;;;;;23.00;67.80;;;;;;5013182;28;19918;-71
2022/07/07 03:24:07;;;;;;;;;;;23.00;67.80;;;;;;5013110;28;19909;-71
2022/07/07 03:26:33;;;;;;;;;;;23.00;68.40;;;;;;5011768;28;19914;-71
2022/07/07 03:28:58;;;;;;;;;;;23.00;68.70;;;;;;5012772;28;19952;-71
2022/07/07 03:31:24;;;;;;;;;;;23.00;68.50;;;;;;5013194;28;19909;-71
2022/07/07 03:33:49;;;;;;;;;;;23.00;68.40;;;;;;5012208;28;19955;-71
2022/07/07 03:36:15;;;;;;;;;;;23.00;68.40;;;;;;5012908;28;19960;-71
2022/07/07 03:38:41;;;;;;;;;;;22.90;68.50;;;;;;5012378;28;19909;-71
2022/07/07 03:41:06;;;;;;;;;;;22.90;68.30;;;;;;5012550;28;20016;-71
2022/07/07 03:43:32;;;;;;;;;;;22.70;68.20;;;;;;5012974;28;20004;-71
2022/07/07 03:45:57;;;;;;;;;;;22.70;68.30;;;;;;5012373;28;20283;-71
2022/07/07 03:48:23;;;;;;;;;;;22.70;67.90;;;;;;5012008;28;19913;-71
2022/07/07 03:50:49;;;;;;;;;;;22.60;67.60;;;;;;5012932;28;19992;-71
2022/07/07 03:53:14;;;;;;;;;;;22.70;67.30;;;;;;5012368;28;20294;-71
2022/07/07 03:55:40;;;;;;;;;;;22.60;66.90;;;;;;5012331;28;19922;-71
2022/07/07 03:58:05;;;;;;;;;;;22.60;66.80;;;;;;5012367;28;20374;-71
2022/07/07 04:00:31;;;;;;;;;;;22.60;66.20;;;;;;5011702;28;19929;-71
2022/07/07 04:02:57;;;;;;;;;;;22.50;66.30;;;;;;5012178;28;19913;-71
2022/07/07 04:05:22;;;;;;;;;;;22.60;66.20;;;;;;5012800;28;19916;-71
2022/07/07 04:07:48;;;;;;;;;;;22.50;66.00;;;;;;5012272;28;19913;-71
2022/07/07 04:10:14;;;;;;;;;;;22.60;66.60;;;;;;5012660;28;19914;-71
2022/07/07 04:12:39;;;;;;;;;;;22.50;66.50;;;;;;5012804;28;19910;-71
2022/07/07 04:15:05;;;;;;;;;;;22.50;66.40;;;;;;5011957;28;19910;-71
2022/07/07 04:17:30;;;;;;;;;;;22.60;66.30;;;;;;5012285;28;19906;-71
2022/07/07 04:19:56;;;;;;;;;;;22.50;66.00;;;;;;5012316;28;19917;-71
2022/07/07 04:22:22;;;;;;;;;;;22.50;66.00;;;;;;5012465;28;19972;-71
2022/07/07 04:24:47;;;;;;;;;;;22.50;66.00;;;;;;5012156;28;20272;-70
2022/07/07 04:27:13;;;;;;;;;;;22.50;65.90;;;;;;5012133;28;20402;-71
2022/07/07 04:29:38;;;;;;;;;;;22.60;65.40;;;;;;5012034;28;19910;-71
2022/07/07 04:32:04;;;;;;;;;;;22.40;65.60;;;;;;5012487;28;19910;-71
2022/07/07 04:34:30;;;;;;;;;;;22.50;65.30;;;;;;5012172;28;19914;-71
2022/07/07 04:36:55;;;;;;;;;;;22.60;65.30;;;;;;5012485;28;19956;-71
2022/07/07 04:39:21;;;;;;;;;;;22.50;65.30;;;;;;5012279;28;20008;-71
2022/07/07 04:41:46;;;;;;;;;;;22.60;65.20;;;;;;5012697;28;19917;-71
2022/07/07 04:44:12;;;;;;;;;;;22.60;65.20;;;;;;5011980;28;20391;-71
2022/07/07 04:46:38;;;;;;;;;;;22.60;65.10;;;;;;5014422;28;19920;-71
2022/07/07 04:49:03;;;;;;;;;;;22.60;65.30;;;;;;5016253;28;19913;-71
2022/07/07 04:51:29;;;;;;;;;;;22.60;65.50;;;;;;5015925;28;19910;-71
2022/07/07 04:53:55;;;;;;;;;;;22.60;65.60;;;;;;5015893;28;20379;-70
2022/07/07 04:56:21;;;;;;;;;;;22.50;65.60;;;;;;5015596;28;19914;-71
2022/07/07 04:58:46;;;;;;;;;;;22.50;66.30;;;;;;5015064;28;19924;-71
2022/07/07 05:01:12;;;;;;;;;;;22.50;66.20;;;;;;5015658;28;19921;-71
2022/07/07 05:03:37;;;;;;;;;;;22.50;66.30;;;;;;5015948;28;20279;-71
2022/07/07 05:06:03;;;;;;;;;;;22.60;66.00;;;;;;5015631;28;19910;-71
2022/07/07 05:08:31;;;;;;;;;;;22.60;66.10;;;;;;5015392;28;19917;-69
2022/07/07 05:10:57;;;;;;;;;;;22.60;65.60;;;;;;5015737;28;19964;-71
2022/07/07 05:13:22;;;;;;;;;;;22.50;65.90;;;;;;5015863;28;19913;-76
2022/07/07 05:15:48;;;;;;;;;;;22.50;66.30;;;;;;5015542;28;20298;-72
2022/07/07 05:18:16;;;;;;;;;;;22.40;66.60;;;;;;5015339;28;19982;-71
2022/07/07 05:20:42;;;;;;;;;;;22.30;67.30;;;;;;5014560;28;19945;-71
2022/07/07 05:23:08;;;;;;;;;;;22.30;67.00;;;;;;5015717;28;20382;-72
2022/07/07 05:25:33;;;;;;;;;;;22.30;67.00;;;;;;5014753;28;20370;-72
2022/07/07 05:27:59;;;;;;;;;;;22.40;67.60;;;;;;5014714;28;19909;-71
2022/07/07 05:30:25;;;;;;;;;;;22.30;66.90;;;;;;5015715;28;19996;-72
2022/07/07 05:32:50;;;;;;;;;;;22.40;67.40;;;;;;5015146;28;20313;-71
2022/07/07 05:35:16;;;;;;;;;;;22.50;67.30;;;;;;5009312;28;20371;-71
2022/07/07 05:37:41;;;;;;;;;;;22.60;66.70;;;;;;4995356;28;19932;-71
2022/07/07 05:40:07;;;;;;;;;;;22.70;66.30;;;;;;5008016;28;20369;-71
2022/07/07 05:42:33;;;;;;;;;;;22.70;66.50;;;;;;5014826;28;19918;-72
2022/07/07 05:44:59;;;;;;;;;;;22.70;66.00;;;;;;5014784;28;20182;-72
2022/07/07 05:47:24;;;;;;;;;;;22.70;64.90;;;;;;5014857;28;19944;-71
2022/07/07 05:49:50;;;;;;;;;;;22.80;64.20;;;;;;5013924;28;20402;-71
2022/07/07 05:52:16;;;;;;;;;;;22.90;64.10;;;;;;5014591;28;19917;-72
2022/07/07 05:54:41;;;;;;;;;;;22.90;63.20;;;;;;5013900;28;19921;-72
2022/07/07 05:57:07;;;;;;;;;;;22.90;62.90;;;;;;5013019;28;19909;-72
2022/07/07 05:59:33;;;;;;;;;;;22.90;62.30;;;;;;5014829;28;19916;-73
2022/07/07 06:01:59;;;;;;;;;;;23.00;62.90;;;;;;5014481;28;20004;-72
2022/07/07 06:04:26;;;;;;;;;;;23.10;62.80;;;;;;5014346;28;19909;-72
2022/07/07 06:06:52;;;;;;;;;;;23.00;63.00;;;;;;5014836;28;20004;-72
2022/07/07 06:09:18;;;;;;;;;;;23.00;63.10;;;;;;5014916;28;19941;-72
2022/07/07 06:11:44;;;;;;;;;;;23.00;63.20;;;;;;5014677;28;19967;-72
2022/07/07 06:14:09;;;;;;;;;;;23.10;62.90;;;;;;5014078;28;19921;-72
2022/07/07 06:16:38;;;;;;;;;;;23.10;63.00;;;;;;5014710;28;19936;-72
2022/07/07 06:19:08;;;;;;;;;;;23.10;62.60;;;;;;5014237;28;19996;-72
2022/07/07 06:21:34;;;;;;;;;;;23.20;61.80;;;;;;5015000;28;19971;-73
2022/07/07 06:23:59;;;;;;;;;;;23.20;62.00;;;;;;5014093;28;19910;-72
2022/07/07 06:26:25;;;;;;;;;;;23.40;61.90;;;;;;5013847;28;19921;-72
2022/07/07 06:28:50;;;;;;;;;;;23.40;60.50;;;;;;5013789;28;19910;-73
2022/07/07 06:31:16;;;;;;;;;;;23.50;60.70;;;;;;5012485;28;19913;-73
2022/07/07 06:33:42;;;;;;;;;;;23.50;60.00;;;;;;5013014;28;19913;-74
2022/07/07 06:36:07;;;;;;;;;;;23.80;60.10;;;;;;5013646;28;20290;-66
2022/07/07 06:38:33;;;;;;;;;;;23.90;59.40;;;;;;5012787;28;20335;-62
2022/07/07 06:40:59;;;;;;;;;;;24.00;59.20;;;;;;5011849;28;19961;-62
2022/07/07 06:43:25;;;;;;;;;;;24.00;58.70;;;;;;5014063;28;19914;-62
2022/07/07 06:45:51;;;;;;;;;;;24.10;58.60;;;;;;5013738;28;20379;-61
2022/07/07 06:48:17;;;;;;;;;;;24.00;58.70;;;;;;5008909;28;20405;-62
2022/07/07 06:50:44;;;;;;;;;;;24.00;57.50;;;;;;5008772;28;19909;-62
2022/07/07 06:53:09;;;;;;;;;;;24.00;58.30;;;;;;5006876;28;19916;-61
2022/07/07 06:55:35;;;;;;;;;;;24.00;58.90;;;;;;5000716;28;19909;-60
2022/07/07 06:58:02;;;;;;;;;;;24.00;60.00;;;;;;5005061;28;19909;-61
2022/07/07 07:00:28;;;;;;;;;;;24.10;59.40;;;;;;4996910;28;19913;-60
2022/07/07 07:02:54;;;;;;;;;;;24.10;58.30;;;;;;5011112;28;20284;-62
2022/07/07 07:05:20;;;;;;;;;;;24.20;58.40;;;;;;5013685;28;20378;-62
2022/07/07 07:07:45;;;;;;;;;;;24.20;56.70;;;;;;5013210;28;19910;-62
2022/07/07 07:10:11;;;;;;;;;;;24.20;57.10;;;;;;5013578;28;19910;-63
2022/07/07 07:12:37;;;;;;;;;;;24.20;57.70;;;;;;5013651;28;20289;-61
2022/07/07 07:15:02;;;;;;;;;;;24.20;56.70;;;;;;5013169;28;19955;-62
2022/07/07 07:17:28;;;;;;;;;;;24.30;57.00;;;;;;5013024;28;19918;-62
2022/07/07 07:19:54;;;;;;;;;;;24.40;54.90;;;;;;5013292;28;19963;-59
2022/07/07 07:22:19;;;;;;;;;;;24.40;54.40;;;;;;5012491;28;19917;-62
2022/07/07 07:24:45;;;;;;;;;;;24.40;53.50;;;;;;5013119;28;19909;-62
2022/07/07 07:27:10;;;;;;;;;;;24.50;54.50;;;;;;5013074;28;19914;-61
2022/07/07 07:29:36;;;;;;;;;;;24.50;54.40;;;;;;5013137;28;19988;-62
2022/07/07 07:32:02;;;;;;;;;;;24.60;54.00;;;;;;5012977;28;20007;-62
2022/07/07 07:34:27;;;;;;;;;;;24.60;54.00;;;;;;5013007;28;19910;-62
2022/07/07 07:36:53;;;;;;;;;;;24.70;53.70;;;;;;5012614;28;20370;-60
2022/07/07 07:39:18;;;;;;;;;;;24.70;52.90;;;;;;5012816;28;19968;-61
2022/07/07 07:41:44;;;;;;;;;;;24.70;51.90;;;;;;5011445;28;19964;-62
2022/07/07 07:44:10;;;;;;;;;;;24.80;52.70;;;;;;5012418;28;20022;-62
2022/07/07 07:46:35;;;;;;;;;;;24.80;52.00;;;;;;5012705;28;19975;-62
2022/07/07 07:49:05;;;;;;;;;;;24.90;51.40;;;;;;5012733;28;19971;-62
2022/07/07 07:51:32;;;;;;;;;;;24.90;51.80;;;;;;5005559;28;19944;-62
2022/07/07 07:53:57;;;;;;;;;;;25.00;50.50;;;;;;5002042;28;19914;-62
2022/07/07 07:56:23;;;;;;;;;;;25.10;50.90;;;;;;5010237;28;20398;-63
2022/07/07 07:58:49;;;;;;;;;;;25.10;50.10;;;;;;5023252;28;20374;-62
2022/07/07 08:01:14;;;;;;;;;;;25.10;50.10;;;;;;5025193;28;20397;-62
2022/07/07 08:03:41;;;;;;;;;;;25.20;50.40;;;;;;5029210;28;19999;-62
2022/07/07 08:06:06;;;;;;;;;;;25.30;49.60;;;;;;5014222;28;19913;-62
2022/07/07 08:08:32;;;;;;;;;;;25.40;49.70;;;;;;5007900;28;20457;-62
2022/07/07 08:10:58;;;;;;;;;;;25.40;49.10;;;;;;5009927;28;19928;-63
2022/07/07 08:13:23;;;;;;;;;;;25.50;49.60;;;;;;5009649;28;19917;-63
2022/07/07 08:15:49;;;;;;;;;;;25.60;48.40;;;;;;5009653;28;20317;-62
2022/07/07 08:18:15;;;;;;;;;;;25.70;48.80;;;;;;5009869;28;19910;-62
2022/07/07 08:20:40;;;;;;;;;;;25.70;48.80;;;;;;5008983;28;19992;-62
2022/07/07 08:23:06;;;;;;;;;;;25.80;47.90;;;;;;5009793;28;19914;-63
2022/07/07 08:25:33;;;;;;;;;;;25.80;46.90;;;;;;5009667;28;20301;-62
2022/07/07 08:27:59;;;;;;;;;;;25.90;46.30;;;;;;5009305;28;19914;-63
2022/07/07 08:30:25;;;;;;;;;;;25.90;46.70;;;;;;5009442;28;20409;-65
2022/07/07 08:32:50;;;;;;;;;;;25.90;46.10;;;;;;5010016;28;20076;-65
2022/07/07 08:35:16;;;;;;;;;;;26.10;46.40;;;;;;5009232;28;19983;-64
2022/07/07 08:37:42;;;;;;;;;;;26.10;46.40;;;;;;5009458;28;19909;-66
2022/07/07 08:40:08;;;;;;;;;;;26.10;46.10;;;;;;5008332;28;19925;-65
2022/07/07 08:42:34;;;;;;;;;;;26.20;46.60;;;;;;5009465;28;20015;-65
2022/07/07 08:44:59;;;;;;;;;;;26.30;46.30;;;;;;5009371;28;19975;-68
2022/07/07 08:47:25;;;;;;;;;;;26.40;45.40;;;;;;5009562;28;19929;-65
2022/07/07 08:49:51;;;;;;;;;;;26.40;45.80;;;;;;5009574;28;19913;-65
2022/07/07 08:52:17;;;;;;;;;;;26.50;45.20;;;;;;5008811;28;19940;-65
2022/07/07 08:54:42;;;;;;;;;;;26.50;46.20;;;;;;5009140;28;19932;-65
2022/07/07 08:57:08;;;;;;;;;;;26.60;45.50;;;;;;5009322;28;19909;-65
2022/07/07 08:59:34;;;;;;;;;;;26.60;44.90;;;;;;5009290;28;19913;-65
2022/07/07 09:02:00;;;;;;;;;;;26.70;45.50;;;;;;5008928;28;20635;-64
2022/07/07 09:04:26;;;;;;;;;;;26.70;44.70;;;;;;5008798;28;19914;-65
2022/07/07 09:06:53;;;;;;;;;;;26.80;44.70;;;;;;5009521;28;19910;-65
2022/07/07 09:09:27;;;;;;;;;;;27.00;43.30;;;;;;5007572;28;20470;-65
2022/07/07 09:11:59;;;;;;;;;;;27.10;43.10;;;;;;5008572;28;20521;-64
2022/07/07 09:14:24;;;;;;;;;;;27.30;41.70;;;;;;5008844;28;20378;-67
2022/07/07 09:16:50;;;;;;;;;;;27.30;41.30;;;;;;5009103;28;19910;-69
2022/07/07 09:19:25;;;;;;;;;;;27.30;41.50;;;;;;5008708;28;19913;-69
2022/07/07 09:21:50;;;;;;;;;;;27.40;41.60;;;;;;5008696;28;19933;-69
2022/07/07 09:24:16;;;;;;;;;;;27.50;42.20;;;;;;5009037;28;19913;-70
2022/07/07 09:26:43;;;;;;;;;;;27.50;42.50;;;;;;5008408;28;19956;-71
2022/07/07 09:29:10;;;;;;;;;;;27.60;43.20;;;;;;5009267;28;19918;-68
2022/07/07 09:31:57;;;;;;;;;;;27.60;43.10;;;;;;5008598;28;19948;-68
2022/07/07 09:34:26;;;;;;;;;;;27.70;41.60;;;;;;5010229;28;20432;-68
2022/07/07 09:39:43;;;;;;;;;;;27.90;42.90;;;;;;5011735;28;20338;-67
2022/07/07 09:42:20;;;;;;;;;;;27.90;43.90;;;;;;5012159;28;20028;-68
2022/07/07 09:44:47;;;;;;;;;;;28.00;43.50;;;;;;5010515;28;20382;-68
2022/07/07 09:47:13;;;;;;;;;;;28.10;44.40;;;;;;5012487;28;19920;-67
2022/07/07 09:49:41;;;;;;;;;;;28.10;44.80;;;;;;5012064;28;20003;-67
2022/07/07 09:52:16;;;;;;;;;;;28.20;45.00;;;;;;5012157;28;19954;-68
2022/07/07 09:54:45;;;;;;;;;;;28.20;44.20;;;;;;5012222;28;20379;-68
2022/07/07 09:57:11;;;;;;;;;;;28.30;43.70;;;;;;5011941;28;19953;-68
2022/07/07 09:59:37;;;;;;;;;;;28.30;44.10;;;;;;5012313;28;19975;-68
2022/07/07 10:02:02;;;;;;;;;;;28.40;43.30;;;;;;5011202;28;19921;-68
2022/07/07 10:04:28;;;;;;;;;;;28.40;44.70;;;;;;5011672;28;19909;-67
2022/07/07 10:06:54;;;;;;;;;;;28.40;45.10;;;;;;5012506;28;19959;-69
2022/07/07 10:09:21;;;;;;;;;;;28.50;45.10;;;;;;5009682;28;19980;-67
2022/07/07 10:11:46;;;;;;;;;;;28.60;44.90;;;;;;5010775;28;19948;-67
2022/07/07 10:14:12;;;;;;;;;;;28.50;45.30;;;;;;5010413;28;20346;-67
2022/07/07 10:16:38;;;;;;;;;;;28.70;44.80;;;;;;5009742;28;19913;-67
2022/07/07 10:19:04;;;;;;;;;;;28.70;44.80;;;;;;5004660;28;19918;-67
2022/07/07 10:21:29;;;;;;;;;;;28.70;45.30;;;;;;5010812;28;20429;-67
2022/07/07 10:23:55;;;;;;;;;;;28.80;43.90;;;;;;5011857;28;19945;-67
2022/07/07 10:26:41;;;;;;;;;;;28.90;43.80;;;;;;5011670;28;19948;-67
2022/07/07 10:29:08;;;;;;;;;;;29.00;43.50;;;;;;5011550;28;19920;-67
2022/07/07 10:31:34;;;;;;;;;;;29.00;44.00;;;;;;5009881;28;20305;-68
2022/07/07 10:34:00;;;;;;;;;;;29.10;43.30;;;;;;5011339;28;19913;-67
2022/07/07 10:36:26;;;;;;;;;;;29.20;43.00;;;;;;5011456;28;19952;-68
2022/07/07 10:38:53;;;;;;;;;;;29.20;42.70;;;;;;5010084;28;19914;-67
2022/07/07 10:41:23;;;;;;;;;;;29.20;43.30;;;;;;5010848;28;19930;-67
2022/07/07 10:43:55;;;;;;;;;;;29.30;41.90;;;;;;5011001;28;19953;-67
2022/07/07 10:46:20;;;;;;;;;;;29.40;42.40;;;;;;5010951;28;19917;-67
2022/07/07 10:48:47;;;;;;;;;;;29.60;42.00;;;;;;5011313;28;19910;-67
2022/07/07 10:51:22;;;;;;;;;;;29.60;41.00;;;;;;5011127;28;20382;-68
2022/07/07 10:53:54;;;;;;;;;;;29.50;41.70;;;;;;5007336;28;19945;-68
2022/07/07 10:56:19;;;;;;;;;;;29.60;41.20;;;;;;5009840;28;19935;-69
2022/07/07 10:58:55;;;;;;;;;;;29.70;42.00;;;;;;5014036;28;20271;-67
2022/07/07 11:01:25;;;;;;;;;;;29.70;41.80;;;;;;5013441;28;19917;-67
2022/07/07 11:03:50;;;;;;;;;;;29.70;42.90;;;;;;5006566;28;19961;-67
2022/07/07 11:06:16;;;;;;;;;;;29.70;42.50;;;;;;5010493;28;20396;-67
2022/07/07 11:08:42;;;;;;;;;;;29.80;42.40;;;;;;5012229;28;19919;-67
2022/07/07 11:11:08;;;;;;;;;;;29.90;42.50;;;;;;5012499;28;19955;-67
2022/07/07 11:13:42;;;;;;;;;;;29.90;43.30;;;;;;5012857;28;19931;-67
2022/07/07 11:16:09;;;;;;;;;;;30.00;42.00;;;;;;5013249;28;20413;-67
2022/07/07 11:18:35;;;;;;;;;;;30.00;42.70;;;;;;5013478;28;19928;-68
2022/07/07 11:21:02;;;;;;;;;;;30.10;42.10;;;;;;5013355;28;19921;-68
2022/07/07 11:23:41;;;;;;;;;;;30.10;42.10;;;;;;5013415;28;19909;-67
2022/07/07 11:26:07;;;;;;;;;;;30.30;42.40;;;;;;5012872;28;20358;-68
2022/07/07 11:28:35;;;;;;;;;;;30.30;41.90;;;;;;5012649;28;19920;-69
2022/07/07 11:31:02;;;;;;;;;;;30.20;42.80;;;;;;5013225;28;20404;-67
2022/07/07 11:33:27;;;;;;;;;;;30.30;43.40;;;;;;5012503;28;20000;-67
2022/07/07 11:35:53;;;;;;;;;;;30.60;42.40;;;;;;5012171;28;19914;-67
2022/07/07 11:38:24;;;;;;;;;;;30.60;42.60;;;;;;5013286;28;19960;-67
2022/07/07 11:40:50;;;;;;;;;;;30.50;43.90;;;;;;5012537;28;20395;-67
2022/07/07 11:43:24;;;;;;;;;;;30.50;44.80;;;;;;5012348;28;19919;-67
2022/07/07 11:45:50;;;;;;;;;;;30.60;44.00;;;;;;5013063;28;19937;-67
2022/07/07 11:48:16;;;;;;;;;;;30.80;43.60;;;;;;5012970;28;20417;-67
2022/07/07 11:50:41;;;;;;;;;;;30.70;43.90;;;;;;5011672;28;19909;-67
2022/07/07 11:53:07;;;;;;;;;;;30.70;43.90;;;;;;5012166;28;19921;-67
2022/07/07 11:55:33;;;;;;;;;;;30.80;44.30;;;;;;5012368;28;19910;-67
2022/07/07 11:57:59;;;;;;;;;;;30.80;45.40;;;;;;5012724;28;19914;-67
2022/07/07 12:00:27;;;;;;;;;;;30.90;45.30;;;;;;5011289;28;19917;-67
2022/07/07 12:02:53;;;;;;;;;;;30.90;45.40;;;;;;5012809;28;19924;-67
2022/07/07 12:05:21;;;;;;;;;;;30.90;45.60;;;;;;5012837;28;19913;-66
2022/07/07 12:07:54;;;;;;;;;;;31.00;45.20;;;;;;5012651;28;19909;-66
2022/07/07 12:10:21;;;;;;;;;;;31.00;46.10;;;;;;5012636;28;19909;-68
2022/07/07 12:13:13;;;;;;;;;;;31.10;46.20;;;;;;5010675;28;19945;-68
2022/07/07 12:15:43;;;;;;;;;;;31.10;45.70;;;;;;5010871;28;20409;-67
2022/07/07 12:18:09;;;;;;;;;;;31.00;46.70;;;;;;4992893;28;19917;-66
2022/07/07 12:20:35;;;;;;;;;;;31.20;47.20;;;;;;4997616;28;19976;-67
2022/07/07 12:23:01;;;;;;;;;;;31.10;46.90;;;;;;5005629;28;19918;-67
2022/07/07 12:25:28;;;;;;;;;;;31.10;47.50;;;;;;5008168;28;20287;-67
2022/07/07 12:27:57;;;;;;;;;;;31.20;48.10;;;;;;5007464;28;19921;-67
2022/07/07 12:30:23;;;;;;;;;;;31.20;48.00;;;;;;5009445;28;19920;-67
2022/07/07 12:32:50;;;;;;;;;;;31.30;47.30;;;;;;5009018;28;20007;-67
2022/07/07 12:35:45;;;;;;;;;;;31.40;47.90;;;;;;5009490;28;20367;-67
2022/07/07 12:38:10;;;;;;;;;;;31.40;47.90;;;;;;5005070;28;19960;-67
2022/07/07 12:40:37;;;;;;;;;;;31.30;48.50;;;;;;5009354;28;20307;-67
2022/07/07 12:43:11;;;;;;;;;;;31.40;48.20;;;;;;5009556;28;20386;-67
2022/07/07 12:45:38;;;;;;;;;;;31.50;48.60;;;;;;5009748;28;19914;-67
2022/07/07 12:48:14;;;;;;;;;;;31.70;48.50;;;;;;5009776;28;19910;-67
2022/07/07 12:50:39;;;;;;;;;;;31.60;48.70;;;;;;5009478;28;19929;-67
2022/07/07 12:53:07;;;;;;;;;;;31.60;48.50;;;;;;5009552;28;19918;-67
2022/07/07 12:55:34;;;;;;;;;;;31.80;48.50;;;;;;5009362;28;20400;-67
2022/07/07 12:58:17;;;;;;;;;;;31.80;48.50;;;;;;5009389;28;20537;-67
2022/07/07 13:00:55;;;;;;;;;;;31.70;48.70;;;;;;5009335;28;20377;-73
2022/07/07 13:03:21;;;;;;;;;;;31.70;48.60;;;;;;5009405;28;19917;-72
2022/07/07 13:05:47;;;;;;;;;;;31.80;48.20;;;;;;5009143;28;19956;-72
2022/07/07 13:08:12;;;;;;;;;;;31.80;48.00;;;;;;5012566;28;19917;-73
2022/07/07 13:10:39;;;;;;;;;;;31.90;47.30;;;;;;5013282;28;19921;-72
2022/07/07 13:13:04;;;;;;;;;;;31.90;48.20;;;;;;5013145;28;19928;-73
2022/07/07 13:15:30;;;;;;;;;;;32.00;48.20;;;;;;5013064;28;19913;-73
2022/07/07 13:17:56;;;;;;;;;;;32.10;47.50;;;;;;5013009;28;20300;-72
2022/07/07 13:20:21;;;;;;;;;;;32.10;48.00;;;;;;5013242;28;20442;-72
2022/07/07 13:22:47;;;;;;;;;;;32.10;48.60;;;;;;5013303;28;19928;-73
2022/07/07 13:25:13;;;;;;;;;;;32.10;48.40;;;;;;5012831;28;19948;-73
2022/07/07 13:27:38;;;;;;;;;;;32.30;48.50;;;;;;5013112;28;19924;-72
2022/07/07 13:30:04;;;;;;;;;;;32.30;48.10;;;;;;5012937;28;20362;-73
2022/07/07 13:32:30;;;;;;;;;;;32.40;48.60;;;;;;5012640;28;19913;-72
2022/07/07 13:34:55;;;;;;;;;;;32.50;47.80;;;;;;5013178;28;19920;-73
2022/07/07 13:37:21;;;;;;;;;;;32.40;47.60;;;;;;5012777;28;20363;-72
2022/07/07 13:39:47;;;;;;;;;;;32.40;48.10;;;;;;5014917;28;19926;-73
2022/07/07 13:42:12;;;;;;;;;;;32.40;48.10;;;;;;5015371;28;19917;-73
2022/07/07 13:44:39;;;;;;;;;;;32.40;48.10;;;;;;5015813;28;20259;-66
2022/07/07 13:47:05;;;;;;;;;;;32.40;47.80;;;;;;5014788;28;19925;-68
2022/07/07 13:49:30;;;;;;;;;;;32.40;47.70;;;;;;5015353;28;20024;-66
2022/07/07 13:51:58;;;;;;;;;;;32.30;47.40;;;;;;5015221;28;19933;-73
2022/07/07 13:54:27;;;;;;;;;;;32.40;47.40;;;;;;5014597;28;19914;-66
2022/07/07 13:56:53;;;;;;;;;;;32.40;47.70;;;;;;5015189;28;19913;-71
2022/07/07 13:59:18;;;;;;;;;;;32.50;47.00;;;;;;5015283;28;19909;-67
2022/07/07 14:01:44;;;;;;;;;;;32.60;47.20;;;;;;5014641;28;20401;-67
2022/07/07 14:04:09;;;;;;;;;;;32.50;47.70;;;;;;5014941;28;19941;-67
2022/07/07 14:06:35;;;;;;;;;;;32.50;48.80;;;;;;5014548;28;19909;-66
2022/07/07 14:09:01;;;;;;;;;;;32.40;47.80;;;;;;5014452;28;19916;-67
2022/07/07 14:11:26;;;;;;;;;;;32.50;47.80;;;;;;5015028;28;20390;-67
2022/07/07 14:13:52;;;;;;;;;;;32.60;47.80;;;;;;5015237;28;19910;-67
2022/07/07 14:16:17;;;;;;;;;;;32.60;47.70;;;;;;5014585;28;20339;-67